Latest Weather Observations for Neptune Island

IDS60801

Issued at 10:35 pm CST Thursday 31 July 2014 (issued every 30 minutes, with the page automatically refreshed every 10 minutes)

About weather observations | Map of weather stations | Latest weather observations for SA | Other Formats
Station Details ID: 018115 Name: NEPTUNE ISLAND Lat: -35.34 Lon: 136.12 Height: 32.0 m
Data from the previous 72 hours. | See also: Recent months at Neptune Island
Date/Time
CST
Temp
°C
App
Temp
°C
Dew
Point
Rel
Hum
%
Delta-T
°C
Wind Press
QNH
hPa
Press
MSL
hPa
Rain
since 9 am
mm
Dir
 
Spd
km/h
Gust
km/h
Spd
kts
Gust
kts
31/10:30pm 10.2 -2.4 5.6 73 2.1 SW 61 76 33 41 1010.2 1010.2 3.2
31/10:11pm 11.2 -2.7 4.7 64 3.0 WSW 67 87 36 47 1009.5 - 2.8
31/10:00pm 11.2 -2.0 4.7 64 3.0 WSW 63 80 34 43 1009.9 - 2.8
31/09:57pm 11.1 -1.3 4.6 64 2.9 W 59 80 32 43 1009.7 - 2.8
31/09:44pm 10.9 0.7 5.4 69 2.5 W 48 57 26 31 1010.0 - 2.8
31/09:30pm 10.7 -3.6 4.4 65 2.8 WSW 69 89 37 48 1009.9 1009.9 2.8
31/09:23pm 10.7 -4.0 3.5 61 3.2 WSW 70 89 38 48 1009.4 - 2.8
31/09:00pm 10.9 -3.4 4.8 66 2.8 WSW 69 83 37 45 1009.4 1009.4 2.8
31/08:51pm 10.9 -3.6 3.7 61 3.2 WSW 69 87 37 47 1009.3 - 2.8
31/08:30pm 10.6 -4.7 4.5 66 2.7 WSW 74 87 40 47 1009.4 1009.4 2.8
31/08:00pm 10.6 -4.0 4.1 64 2.9 W 70 93 38 50 1008.8 - 2.8
31/07:40pm 10.9 -3.1 4.1 63 3.0 WSW 67 91 36 49 1008.7 - 2.8
31/07:30pm 11.4 -3.0 3.9 60 3.4 WSW 69 83 37 45 1008.8 1008.8 2.8
31/07:12pm 11.4 -2.1 4.8 64 3.0 WSW 65 83 35 45 1008.6 - 2.8
31/07:00pm 11.4 -1.4 4.8 64 3.0 WSW 61 74 33 40 1008.5 - 2.8
31/06:30pm 10.5 -2.2 5.3 70 2.4 WSW 61 80 33 43 1008.4 1008.4 2.8
31/06:12pm 9.9 -3.8 3.6 65 2.8 WSW 65 93 35 50 1007.9 - 2.8
31/06:00pm 10.3 -3.4 4.0 65 2.8 WSW 65 80 35 43 1007.8 1007.8 2.8
31/05:46pm 10.8 -2.6 5.3 69 2.5 WSW 65 91 35 49 1007.6 - 2.6
31/05:30pm 10.6 -3.6 5.2 69 2.5 WSW 69 82 37 44 1007.5 1007.5 2.6
31/05:00pm 10.2 -4.1 5.8 74 2.0 WSW 70 83 38 45 1007.1 - 2.6
31/04:30pm 10.4 -3.1 5.0 69 2.5 WSW 65 83 35 45 1006.4 1006.4 1.8
31/04:04pm 11.5 -1.9 5.4 66 2.8 WSW 65 83 35 45 1006.2 - 1.8
31/04:00pm 11.5 -2.2 5.6 67 2.7 WSW 67 83 36 45 1005.9 - 1.8
31/03:35pm 11.1 -2.1 6.3 72 2.3 WSW 65 83 35 45 1005.8 - 1.8
31/03:30pm 10.7 -3.3 6.3 74 2.1 WSW 69 83 37 45 1005.9 1005.9 1.8
31/03:05pm 9.7 -6.2 7.0 83 1.3 SW 80 98 43 53 1005.6 - 1.8
31/03:00pm 9.3 -7.3 6.2 81 1.4 SW 83 98 45 53 1005.3 1005.3 1.8
31/02:56pm 9.6 -7.8 6.0 78 1.7 SW 87 98 47 53 1004.7 - 1.8
31/02:30pm 10.7 -3.0 7.4 80 1.6 SW 69 89 37 48 1004.9 1004.9 1.8
31/02:10pm 10.3 -3.5 7.2 81 1.5 WSW 69 87 37 47 1004.1 - 1.4
31/02:00pm 11.6 -1.3 7.5 76 2.0 WSW 65 76 35 41 1004.1 - 1.2
31/01:30pm 11.6 -2.4 8.5 81 1.5 WSW 72 91 39 49 1003.2 1003.2 1.2
31/01:00pm 11.3 -2.5 7.8 79 1.7 WSW 70 91 38 49 1003.2 - 1.0
31/12:30pm 11.6 -4.0 8.3 80 1.6 WSW 80 98 43 53 1002.8 1002.8 1.0
31/12:20pm 11.5 -6.7 7.8 78 1.8 WSW 93 111 50 60 1002.7 - 1.0
31/12:14pm 12.0 -6.6 7.5 74 2.2 WSW 95 104 51 56 1002.2 - 1.0
31/12:00pm 13.1 -0.4 9.0 76 2.1 W 70 91 38 49 1002.5 1002.5 1.0
31/11:30am 11.6 -1.8 8.8 83 1.4 W 69 87 37 47 1003.2 1003.2 1.0
31/11:07am 12.3 -0.8 9.9 85 1.2 WSW 69 87 37 47 1003.8 - 0.8
31/11:00am 11.7 -2.6 8.7 82 1.5 WSW 74 87 40 47 1003.2 - 0.8
31/10:30am 11.2 -2.7 8.8 85 1.2 WSW 72 87 39 47 1003.2 1003.2 0.8
31/10:07am 12.1 0.5 9.8 86 1.2 WSW 61 80 33 43 1003.2 - 0.6
31/10:00am 12.0 1.2 9.9 87 1.1 WSW 57 69 31 37 1003.4 - 0.6
31/09:30am 11.6 -0.3 10.0 90 0.8 SW 63 74 34 40 1003.1 1003.1 0.4
31/09:09am 11.8 -1.0 9.7 87 1.1 WSW 67 85 36 46 1002.6 - 0.2
31/09:00am 12.3 0.4 10.2 87 1.1 WSW 63 76 34 41 1002.5 1002.5 -
31/08:30am 12.5 1.5 10.4 87 1.1 WSW 59 70 32 38 1001.8 1001.8 -
31/08:27am 12.6 1.5 10.1 85 1.3 WSW 59 70 32 38 1001.8 - -
31/08:23am 13.5 0.5 10.3 81 1.7 WNW 69 102 37 55 1001.0 - -
31/08:00am 15.6 2.9 11.4 76 2.3 WNW 69 85 37 46 1001.0 - -
31/07:42am 15.5 3.6 11.5 77 2.2 NW 65 83 35 45 1000.9 - -
31/07:30am 15.4 3.9 11.4 77 2.2 WNW 63 78 34 42 1001.2 1001.2 -
31/07:08am 15.4 3.4 11.2 76 2.2 WNW 65 85 35 46 1001.4 - -
31/07:00am 15.3 3.7 11.1 76 2.2 WNW 63 80 34 43 1001.7 - -
31/06:30am 15.4 3.8 11.0 75 2.4 WNW 63 82 34 44 1001.8 1001.8 -
31/06:20am 15.3 3.3 10.9 75 2.3 WNW 65 83 35 45 1001.6 - -
31/06:00am 15.3 2.5 10.9 75 2.4 WNW 69 82 37 44 1002.4 1002.4 -
31/05:39am 15.3 3.6 10.9 75 2.3 WNW 63 82 34 44 1002.5 - -
31/05:30am 15.3 2.9 10.9 75 2.4 WNW 67 82 36 44 1002.2 1002.2 -
31/05:19am 15.3 3.3 10.9 75 2.3 WNW 65 83 35 45 1002.4 - -
31/05:00am 15.2 2.3 10.4 73 2.5 WNW 69 83 37 45 1002.7 - -
31/04:43am 15.2 4.5 10.4 73 2.5 WNW 57 76 31 41 1003.1 - -
31/04:42am 15.3 4.9 10.7 74 2.4 WNW 56 65 30 35 1003.1 - -
31/04:30am 15.3 1.4 10.3 72 2.6 WNW 74 95 40 51 1002.8 1002.8 -
31/04:09am 15.4 2.4 10.8 74 2.4 WNW 70 91 38 49 1003.1 - -
31/04:00am 15.4 2.6 11.0 75 2.3 WNW 69 85 37 46 1003.4 - -
31/03:33am 15.4 2.7 11.4 77 2.1 WNW 69 87 37 47 1003.8 - -
31/03:30am 15.4 - 11.4 77 2.2 - - - - - 1003.8 1003.8 -
31/03:00am 15.5 2.2 11.1 75 2.4 WNW 72 91 39 49 1004.0 1004.0 0.2
31/02:30am 15.3 2.5 10.9 75 2.3 WNW 69 89 37 48 1004.6 1004.6 0.2
31/02:09am 15.4 4.2 11.2 76 2.2 WNW 61 80 33 43 1005.1 - 0.2
31/02:00am 15.4 4.1 11.0 75 2.3 WNW 61 76 33 41 1005.2 - 0.2
31/01:30am 15.3 4.8 11.1 76 2.3 WNW 57 74 31 40 1005.4 1005.4 0.2
31/01:00am 15.4 4.3 11.6 78 2.0 WNW 61 74 33 40 1005.9 - 0.2
31/12:30am 15.4 5.3 11.6 78 2.1 WNW 56 74 30 40 1006.6 1006.6 0.2
31/12:00am 15.7 5.8 12.3 80 1.9 WNW 56 74 30 40 1007.1 1007.1 0.2
 
Date/Time
CST
Temp
°C
App
Temp
°C
Dew
Point
Rel
Hum
%
Delta-T
°C
Wind Press
QNH
hPa
Press
MSL
hPa
Rain
since 9 am
mm
Dir
 
Spd
km/h
Gust
km/h
Spd
kts
Gust
kts
30/11:52pm 15.5 5.8 11.9 79 2.0 WNW 54 74 29 40 1007.3 - 0.2
30/11:30pm 15.5 6.0 12.3 81 1.8 WNW 54 65 29 35 1007.7 1007.7 0.2
30/11:00pm 15.5 7.8 13.3 87 1.2 WNW 46 56 25 30 1008.3 - 0.2
30/10:30pm 15.3 6.8 13.1 87 1.2 NW 50 59 27 32 1008.7 1008.7 0.2
30/10:00pm 15.3 7.5 13.0 86 1.3 WNW 46 69 25 37 1009.1 - 0.2
30/09:55pm 15.2 7.8 12.9 86 1.3 WNW 44 67 24 36 1009.5 - 0.2
30/09:30pm 15.5 6.1 12.8 84 1.5 NW 54 61 29 33 1009.5 1009.5 0.0
30/09:00pm 15.5 6.5 12.8 84 1.5 NW 52 65 28 35 1010.0 1010.0 0.0
30/08:30pm 15.5 6.1 12.6 83 1.6 NW 54 63 29 34 1010.2 1010.2 0.0
30/08:00pm 15.4 5.9 12.5 83 1.6 NW 54 69 29 37 1010.6 - 0.0
30/07:30pm 15.5 5.6 12.4 82 1.7 NW 56 65 30 35 1010.8 1010.8 0.0
30/07:00pm 15.6 6.4 12.2 80 1.9 NW 52 61 28 33 1011.1 - 0.0
30/06:30pm 15.6 7.6 12.5 82 1.7 NW 46 57 25 31 1011.3 1011.3 0.0
30/06:15pm 15.5 8.1 12.3 81 1.8 NW 43 63 23 34 1011.0 - 0.0
30/06:00pm 15.7 7.4 12.6 82 1.7 NW 48 61 26 33 1011.2 1011.2 0.0
30/05:30pm 15.6 7.0 12.9 84 1.5 NW 50 61 27 33 1011.1 1011.1 0.0
30/05:00pm 15.6 7.4 12.9 84 1.5 NW 48 59 26 32 1011.2 - 0.0
30/04:30pm 15.8 6.1 12.9 83 1.6 NW 56 67 30 36 1011.2 1011.2 0.0
30/04:00pm 16.1 7.2 13.0 82 1.7 NW 52 63 28 34 1011.4 - 0.0
30/03:30pm 16.3 7.5 13.4 83 1.6 NW 52 63 28 34 1011.4 1011.4 0.0
30/03:00pm 16.1 7.3 13.4 84 1.5 NW 52 61 28 33 1011.7 1011.7 0.0
30/02:30pm 16.6 7.8 13.5 82 1.7 NW 52 63 28 34 1012.0 1012.0 0.0
30/02:00pm 16.5 7.7 13.4 82 1.7 NW 52 63 28 34 1012.4 - 0.0
30/01:30pm 16.7 8.7 13.4 81 1.9 WNW 48 57 26 31 1012.9 1012.9 0.0
30/01:00pm 16.8 8.7 13.3 80 2.0 NW 48 59 26 32 1013.2 - 0.0
30/12:30pm 16.8 9.6 13.1 79 2.1 NW 43 54 23 29 1013.9 1013.9 0.0
30/12:00pm 16.9 9.5 12.6 76 2.4 NW 43 52 23 28 1014.6 1014.6 0.0
30/11:30am 16.9 9.6 11.6 71 2.9 WNW 41 48 22 26 1015.2 1015.2 0.0
30/11:00am 16.6 9.1 10.9 69 3.1 WNW 41 52 22 28 1015.6 - 0.0
30/10:30am 16.2 8.0 11.6 74 2.5 W 46 59 25 32 1016.0 1015.9 0.0
30/10:00am 16.1 8.2 11.5 74 2.5 W 44 54 24 29 1016.1 - 0.0
30/09:30am 15.7 6.5 10.9 73 2.6 W 50 59 27 32 1016.1 1016.0 0.0
30/09:00am 15.7 6.0 10.5 71 2.7 W 52 74 28 40 1016.1 1016.0 -
30/08:54am 15.7 5.3 10.7 72 2.7 W 56 74 30 40 1015.9 - -
30/08:30am 15.6 6.1 11.2 75 2.4 W 52 65 28 35 1016.1 1016.0 -
30/08:00am 15.5 5.8 11.9 79 2.0 W 54 65 29 35 1015.8 - -
30/07:30am 15.7 7.6 12.1 79 2.0 W 46 56 25 30 1015.7 1015.6 -
30/07:00am 15.7 6.6 12.5 81 1.8 W 52 61 28 33 1015.6 - -
30/06:30am 15.6 8.6 12.4 81 1.8 WNW 41 52 22 28 1015.5 1015.4 -
30/06:00am 15.5 8.1 12.3 81 1.7 W 43 50 23 27 1015.3 1015.3 -
30/05:30am 15.5 7.3 11.7 78 2.1 W 46 57 25 31 1015.0 1015.0 -
30/05:00am 15.5 6.5 11.7 78 2.1 W 50 59 27 32 1015.0 - -
30/04:30am 15.5 7.8 12.1 80 1.9 W 44 56 24 30 1014.9 1014.9 -
30/04:00am 15.4 6.8 11.8 79 1.9 W 48 59 26 32 1015.0 - -
30/03:30am 15.5 - 11.9 79 2.0 - - - - - 1015.3 1015.3 -
30/03:00am 15.8 7.7 12.2 79 2.0 W 46 56 25 30 1015.3 1015.3 0.6
30/02:30am 15.8 8.2 12.4 80 1.9 W 44 57 24 31 1015.7 1015.6 0.6
30/02:00am 15.8 7.6 11.8 77 2.2 W 46 54 25 29 1016.0 - 0.6
30/01:30am 15.8 7.6 11.6 76 2.3 W 46 57 25 31 1016.3 1016.2 0.6
30/01:00am 15.8 7.5 11.4 75 2.4 W 46 56 25 30 1016.1 - 0.6
30/12:30am 15.9 7.9 12.5 80 1.9 W 46 57 25 31 1016.3 1016.2 0.6
30/12:00am 15.7 8.3 12.6 82 1.7 W 43 50 23 27 1016.6 1016.6 0.6
 
Date/Time
CST
Temp
°C
App
Temp
°C
Dew
Point
Rel
Hum
%
Delta-T
°C
Wind Press
QNH
hPa
Press
MSL
hPa
Rain
since 9 am
mm
Dir
 
Spd
km/h
Gust
km/h
Spd
kts
Gust
kts
29/11:30pm 15.6 8.2 12.5 82 1.7 W 43 50 23 27 1016.6 1016.6 0.6
29/11:00pm 15.6 7.3 12.7 83 1.6 W 48 57 26 31 1016.6 - 0.6
29/10:30pm 15.6 7.2 12.4 81 1.8 W 48 59 26 32 1016.6 1016.6 0.6
29/10:00pm 15.7 7.0 12.5 81 1.8 W 50 59 27 32 1016.8 - 0.6
29/09:30pm 15.8 7.5 12.7 82 1.7 W 48 57 26 31 1016.7 1016.7 0.6
29/09:00pm 15.8 7.6 12.9 83 1.6 W 48 57 26 31 1016.4 1016.3 0.6
29/08:30pm 15.7 7.8 12.8 83 1.6 W 46 54 25 29 1016.0 1015.9 0.6
29/08:00pm 15.7 8.3 13.0 84 1.5 W 44 57 24 31 1016.1 - 0.6
29/07:30pm 15.6 7.4 12.9 84 1.5 W 48 61 26 33 1015.7 1015.6 0.6
29/07:00pm 14.5 4.9 12.0 85 1.4 W 54 70 29 38 1015.2 - 0.4
29/06:57pm 14.5 5.6 11.8 84 1.5 W 50 70 27 38 1015.1 - 0.4
29/06:30pm 15.9 7.2 12.6 81 1.8 W 50 63 27 34 1015.0 1015.0 0.4
29/06:00pm 16.0 6.2 12.7 81 1.8 W 56 67 30 36 1014.9 1014.9 0.4
29/05:30pm 15.9 6.1 12.8 82 1.7 W 56 69 30 37 1014.3 1014.3 0.4
29/05:00pm 16.0 6.7 12.9 82 1.7 W 54 65 29 35 1014.2 - 0.4
29/04:30pm 16.0 7.1 13.1 83 1.6 W 52 63 28 34 1014.0 1014.0 0.4
29/04:00pm 15.9 6.3 13.4 85 1.4 W 56 72 30 39 1013.7 - 0.4
29/03:59pm 15.9 6.7 13.4 85 1.4 W 54 72 29 39 1013.7 - 0.4
29/03:30pm 15.6 6.9 13.6 88 1.1 W 52 65 28 35 1013.3 1013.3 0.4
29/03:07pm 14.9 5.1 12.8 87 1.2 W 56 63 30 34 1013.3 - 0.4
29/03:00pm 15.0 1.3 12.3 84 1.5 W 76 87 41 47 1012.8 1012.8 0.2
29/02:56pm 14.9 0.7 12.0 83 1.6 W 78 87 42 47 1012.9 - 0.2
29/02:54pm 15.5 5.7 12.6 83 1.6 W 56 74 30 40 1013.0 - 0.0
29/02:30pm 15.6 5.2 12.7 83 1.6 W 59 72 32 39 1013.2 1013.2 0.0
29/02:00pm 16.4 6.7 13.1 81 1.8 W 56 70 30 38 1013.3 - 0.0
29/01:30pm 16.7 7.0 13.0 79 2.1 WNW 56 70 30 38 1013.2 1013.2 0.0
29/01:00pm 16.5 5.9 13.0 80 2.0 W 61 74 33 40 1013.4 - 0.0
29/12:46pm 16.4 6.4 12.8 79 2.0 W 57 80 31 43 1013.1 - 0.0
29/12:30pm 16.5 6.6 13.0 80 2.0 W 57 72 31 39 1013.3 1013.3 0.0
29/12:00pm 16.3 5.9 12.7 79 2.0 W 59 78 32 42 1013.6 1013.6 0.0
29/11:58am 16.3 5.9 12.7 79 2.0 W 59 78 32 42 1013.7 - 0.0
29/11:30am 16.6 6.8 12.8 78 2.1 W 56 69 30 37 1014.0 1014.0 0.0
29/11:00am 16.3 7.3 12.8 80 1.9 W 52 63 28 34 1014.0 - 0.0
29/10:30am 16.4 5.2 12.4 77 2.2 W 63 78 34 42 1013.7 1013.7 0.0
29/10:21am 16.5 7.0 12.5 77 2.2 WNW 54 76 29 41 1013.5 - 0.0
29/10:00am 16.2 6.8 12.6 79 2.0 W 54 67 29 36 1013.8 - 0.0
29/09:30am 15.9 5.9 12.8 82 1.7 W 57 69 31 37 1013.7 1013.7 0.0
29/09:00am 15.9 5.9 12.8 82 1.7 W 57 72 31 39 1013.4 1013.4 -
29/08:30am 15.6 5.8 13.3 86 1.3 W 57 78 31 42 1013.4 1013.4 -
29/08:02am 14.3 2.7 12.3 88 1.1 W 65 83 35 45 1012.7 - -
29/08:00am 14.0 2.7 12.0 88 1.1 W 63 80 34 43 1012.8 - -
29/07:32am 15.3 4.8 12.2 82 1.7 W 59 78 32 42 1012.6 - -
29/07:30am 15.4 5.3 12.3 82 1.7 W 57 72 31 39 1012.6 1012.6 -
29/07:00am 15.8 6.8 12.7 82 1.7 W 52 74 28 40 1012.6 - -
29/06:30am 15.8 6.8 12.7 82 1.7 WNW 52 61 28 33 1012.4 1012.4 -
29/06:00am 15.6 5.5 12.4 81 1.8 W 57 72 31 39 1011.8 1011.8 -
29/05:30am 15.7 6.2 12.5 81 1.8 W 54 69 29 37 1012.0 1012.0 -
29/05:00am 15.7 5.8 12.5 81 1.8 W 56 72 30 39 1011.7 - -
29/04:56am 15.6 6.1 12.4 81 1.8 W 54 72 29 39 1011.6 - -
29/04:30am 15.5 5.5 12.6 83 1.6 WNW 57 70 31 38 1011.8 1011.8 -
29/04:00am 15.6 6.4 12.2 80 1.9 WNW 52 70 28 38 1012.0 - -
29/03:30am 15.5 - 12.3 81 1.8 - - - - - 1012.2 1012.2 -
29/03:00am 15.4 5.4 12.0 80 1.8 WNW 56 69 30 37 1011.8 1011.8 0.0
29/02:30am 15.4 5.3 11.8 79 2.0 WNW 56 70 30 38 1011.8 1011.8 0.0
29/02:00am 15.4 5.6 11.6 78 2.0 WNW 54 67 29 36 1012.0 - 0.0
29/01:46am 15.5 5.8 11.7 78 2.1 WNW 54 72 29 39 1012.1 - 0.0
29/01:30am 15.6 5.8 11.6 77 2.2 WNW 54 69 29 37 1012.2 1012.2 0.0
29/01:00am 15.5 5.3 11.3 76 2.3 W 56 69 30 37 1012.3 - 0.0
29/12:30am 15.5 5.3 11.3 76 2.3 WNW 56 70 30 38 1012.8 1012.8 0.0
29/12:00am 15.6 5.9 11.8 78 2.1 W 54 72 29 39 1013.1 1013.1 0.0
 
Date/Time
CST
Temp
°C
App
Temp
°C
Dew
Point
Rel
Hum
%
Delta-T
°C
Wind Press
QNH
hPa
Press
MSL
hPa
Rain
since 9 am
mm
Dir
 
Spd
km/h
Gust
km/h
Spd
kts
Gust
kts
28/11:32pm 15.6 6.6 11.6 77 2.2 WNW 50 70 27 38 1013.2 - 0.0
28/11:30pm 15.7 6.8 11.9 78 2.1 WNW 50 63 27 34 1013.3 1013.3 0.0
28/11:00pm 15.6 6.0 12.2 80 1.9 WNW 54 67 29 36 1013.3 - 0.0

Other Formats:

Comma delimited format used in spreadsheet applications
http://www.bom.gov.au/fwo/IDS60801/IDS60801.94804.axf

JavaScript Object Notation format (JSON) in row-major order
http://www.bom.gov.au/fwo/IDS60801/IDS60801.94804.json